Time;durP1;ratioP1;P1;durP2;ratioP2;P2;SDS_P1;SDS_P2;PMS_P1;PMS_P2;Temp;Humidity;BMP_temperature;BMP_pressure;BME280_temperature;BME280_humidity;BME280_pressure;Samples;Min_cycle;Max_cycle;Signal;HPM_P1;HPM_P2
2021/05/14 00:00:29;;;;;;;1.93;1.60;;;;;;;12.18;83.13;94835.16;5016272;28;20199;-81
2021/05/14 00:02:56;;;;;;;1.80;1.70;;;;;;;12.16;83.03;94837.94;5016207;28;20194;-82
2021/05/14 00:05:23;;;;;;;1.50;1.40;;;;;;;12.14;83.52;94834.78;5016492;28;20199;-81
2021/05/14 00:07:49;;;;;;;2.30;1.57;;;;;;;12.14;82.86;94828.81;5016335;28;20226;-83
2021/05/14 00:10:17;;;;;;;1.93;1.53;;;;;;;12.13;82.95;94828.03;5016016;28;20195;-83
2021/05/14 00:12:43;;;;;;;1.50;1.40;;;;;;;12.15;83.23;94836.38;5015697;28;20202;-82
2021/05/14 00:15:10;;;;;;;1.60;1.50;;;;;;;12.09;82.48;94829.47;5015895;28;20194;-83
2021/05/14 00:17:36;;;;;;;1.57;1.47;;;;;;;12.12;82.97;94829.06;5016335;28;20245;-82
2021/05/14 00:20:03;;;;;;;1.60;1.50;;;;;;;12.09;83.59;94829.47;5015679;28;20218;-81
2021/05/14 00:22:29;;;;;;;1.50;1.40;;;;;;;12.06;83.45;94827.28;5015754;28;20199;-83
2021/05/14 00:24:55;;;;;;;3.30;1.43;;;;;;;12.04;83.37;94822.31;5015082;28;20233;-83
2021/05/14 00:27:22;;;;;;;1.60;1.50;;;;;;;12.07;82.88;94821.13;5016393;28;20582;-84
2021/05/14 00:29:48;;;;;;;2.03;1.47;;;;;;;12.07;82.94;94823.72;5015526;28;20210;-83
2021/05/14 00:32:14;;;;;;;1.70;1.60;;;;;;;12.05;82.68;94825.69;5015733;28;20282;-82
2021/05/14 00:34:40;;;;;;;2.67;1.33;;;;;;;12.07;82.61;94823.72;5013710;28;20234;-83
2021/05/14 00:37:06;;;;;;;2.47;1.50;;;;;;;12.05;83.17;94821.31;5014604;28;20187;-81
2021/05/14 00:39:32;;;;;;;1.47;1.37;;;;;;;12.06;82.75;94822.91;5015034;28;20194;-81
2021/05/14 00:41:58;;;;;;;1.60;1.50;;;;;;;12.07;82.54;94827.06;5015260;28;20246;-82
2021/05/14 00:44:26;;;;;;;2.00;1.40;;;;;;;12.03;82.78;94820.72;5014980;28;20199;-83
2021/05/14 00:46:52;;;;;;;1.53;1.43;;;;;;;12.03;82.24;94822.53;5015369;28;20597;-81
2021/05/14 00:49:18;;;;;;;1.60;1.50;;;;;;;11.99;83.11;94823.91;5014639;28;20226;-80
2021/05/14 00:51:45;;;;;;;1.70;1.60;;;;;;;11.99;82.36;94824.72;5014301;28;20298;-80
2021/05/14 00:54:11;;;;;;;1.53;1.40;;;;;;;11.99;82.04;94829.06;5014875;28;20199;-83
2021/05/14 00:56:37;;;;;;;2.43;1.50;;;;;;;11.89;83.65;94824.34;5014387;28;20206;-80
2021/05/14 00:59:03;;;;;;;2.40;1.60;;;;;;;11.90;82.65;94820.00;5014683;28;20245;-81
2021/05/14 01:01:30;;;;;;;1.40;1.20;;;;;;;11.95;81.95;94830.47;5013691;28;20195;-82
2021/05/14 01:03:56;;;;;;;1.37;1.27;;;;;;;11.83;83.14;94826.94;5014590;28;20225;-81
2021/05/14 01:06:23;;;;;;;1.97;1.30;;;;;;;11.83;81.81;94824.38;5014186;28;20203;-80
2021/05/14 01:08:49;;;;;;;1.63;1.53;;;;;;;11.87;81.91;94825.56;5014535;28;20575;-83
2021/05/14 01:11:15;;;;;;;1.60;1.50;;;;;;;11.87;80.70;94821.19;5015231;28;20233;-83
2021/05/14 01:13:41;;;;;;;1.50;1.40;;;;;;;11.86;79.83;94819.59;5014647;28;20224;-83
2021/05/14 01:16:07;;;;;;;2.47;1.50;;;;;;;11.79;79.13;94821.41;5014464;28;20230;-81
2021/05/14 01:18:34;;;;;;;2.07;1.40;;;;;;;11.75;79.41;94830.50;5014527;28;20756;-83
2021/05/14 01:21:01;;;;;;;2.87;1.33;;;;;;;11.75;79.76;94825.34;5014595;28;20218;-81
2021/05/14 01:23:27;;;;;;;1.97;1.30;;;;;;;11.75;79.35;94820.19;5014093;28;20774;-81
2021/05/14 01:25:53;;;;;;;1.73;1.37;;;;;;;11.74;78.71;94821.16;5014242;28;20241;-81
2021/05/14 01:28:19;;;;;;;2.20;1.33;;;;;;;11.75;78.81;94820.19;5014609;28;20643;-80
2021/05/14 01:30:45;;;;;;;2.43;1.60;;;;;;;11.76;78.48;94829.53;5014272;28;20938;-80
2021/05/14 01:33:11;;;;;;;1.60;1.50;;;;;;;11.76;78.76;94824.38;5014269;28;20198;-82
2021/05/14 01:35:37;;;;;;;1.40;1.30;;;;;;;11.73;78.42;94823.00;5014580;28;20718;-83
2021/05/14 01:38:04;;;;;;;1.30;1.20;;;;;;;11.67;78.67;94823.78;5013677;28;20702;-82
2021/05/14 01:40:34;;;;;;;1.37;1.27;;;;;;;11.68;78.63;94827.94;5012353;28;20203;-81
2021/05/14 01:43:00;;;;;;;1.67;1.40;;;;;;;11.64;78.93;94828.53;5012072;28;20191;-82
2021/05/14 01:45:26;;;;;;;1.10;1.10;;;;;;;11.62;79.61;94817.63;5012277;28;20293;-83
2021/05/14 01:47:52;;;;;;;2.03;1.27;;;;;;;11.59;78.31;94821.41;5012298;28;20223;-82
2021/05/14 01:50:19;;;;;;;1.60;1.30;;;;;;;11.60;78.31;94823.00;5012269;28;20753;-80
2021/05/14 01:52:44;;;;;;;2.40;1.20;;;;;;;11.56;78.11;94824.38;5012812;28;20594;-80
2021/05/14 01:55:13;;;;;;;1.90;1.63;;;;;;;11.56;78.14;94821.00;5012475;28;20278;-82
2021/05/14 01:57:39;;;;;;;1.60;1.27;;;;;;;11.50;77.70;94821.84;5012230;28;20657;-83
2021/05/14 02:00:06;;;;;;;1.27;1.17;;;;;;;11.45;77.85;94822.44;5012993;28;20187;-82
2021/05/14 02:02:32;;;;;;;1.43;1.33;;;;;;;11.45;78.11;94827.59;5012631;28;20210;-82
2021/05/14 02:04:58;;;;;;;1.70;1.37;;;;;;;11.43;77.73;94827.78;5012283;28;20199;-81
2021/05/14 02:07:24;;;;;;;2.17;1.27;;;;;;;11.40;78.07;94833.34;5012374;28;20636;-83
2021/05/14 02:09:52;;;;;;;1.43;1.33;;;;;;;11.36;78.18;94823.63;5012826;28;20215;-83
2021/05/14 02:12:19;;;;;;;2.37;1.30;;;;;;;11.39;78.36;94830.94;5011899;28;20589;-83
2021/05/14 02:14:45;;;;;;;1.70;1.30;;;;;;;11.37;78.62;94823.41;5012566;28;20206;-84
2021/05/14 02:17:11;;;;;;;1.40;1.30;;;;;;;11.31;77.63;94831.97;5012844;28;20207;-81
2021/05/14 02:19:37;;;;;;;1.77;1.40;;;;;;;11.29;77.51;94823.63;5012742;28;20337;-83
2021/05/14 02:22:04;;;;;;;1.60;1.50;;;;;;;11.22;77.78;94828.00;5012258;28;20206;-83
2021/05/14 02:24:30;;;;;;;1.20;1.10;;;;;;;11.22;77.18;94829.78;5011991;28;20197;-82
2021/05/14 02:26:56;;;;;;;1.20;1.10;;;;;;;11.21;76.97;94828.97;5012456;28;20199;-81
2021/05/14 02:29:23;;;;;;;1.40;1.30;;;;;;;11.20;76.99;94829.19;5012565;28;20222;-83
2021/05/14 02:31:49;;;;;;;1.30;1.20;;;;;;;11.17;77.20;94838.09;5011754;28;20491;-82
2021/05/14 02:34:15;;;;;;;1.30;1.20;;;;;;;11.15;77.06;94834.16;5012683;28;20260;-81
2021/05/14 02:36:41;;;;;;;2.63;1.33;;;;;;;11.05;78.20;94832.75;5012290;28;20210;-81
2021/05/14 02:39:08;;;;;;;3.97;1.50;;;;;;;11.08;78.27;94831.56;5012458;28;20644;-82
2021/05/14 02:41:34;;;;;;;3.57;1.30;;;;;;;11.10;77.71;94824.44;5012250;28;20199;-83
2021/05/14 02:44:01;;;;;;;1.57;1.30;;;;;;;11.13;77.63;94830.97;5013008;28;20674;-82
2021/05/14 02:46:28;;;;;;;1.67;1.30;;;;;;;11.07;78.24;94830.78;5012187;28;20199;-81
2021/05/14 02:48:54;;;;;;;1.50;1.40;;;;;;;11.06;78.10;94828.38;5012635;28;20249;-82
2021/05/14 02:51:20;;;;;;;1.40;1.30;;;;;;;10.97;77.28;94835.50;5011985;28;20222;-79
2021/05/14 02:53:46;;;;;;;4.30;1.40;;;;;;;10.90;77.92;94834.72;5012581;28;20245;-80
2021/05/14 02:56:12;;;;;;;1.73;1.50;;;;;;;10.94;77.96;94823.03;5011914;28;20202;-82
2021/05/14 02:58:38;;;;;;;3.37;1.30;;;;;;;10.91;76.80;94828.59;5012786;28;20227;-82
2021/05/14 03:01:04;;;;;;;1.47;1.13;;;;;;;10.95;76.28;94831.56;5012328;28;20281;-81
2021/05/14 03:03:30;;;;;;;1.30;1.20;;;;;;;10.93;76.02;94818.09;5012792;28;20556;-81
2021/05/14 03:05:56;;;;;;;1.47;1.37;;;;;;;10.92;76.43;94826.81;5012074;28;20284;-81
2021/05/14 03:08:22;;;;;;;1.80;1.40;;;;;;;10.89;75.41;94830.56;5011978;28;20616;-82
2021/05/14 03:10:48;;;;;;;2.00;1.40;;;;;;;10.88;75.30;94828.19;5011483;28;20199;-82
2021/05/14 03:13:14;;;;;;;3.10;1.20;;;;;;;10.88;75.20;94826.41;5011605;28;20730;-81
2021/05/14 03:15:40;;;;;;;1.43;1.20;;;;;;;10.83;75.50;94828.75;5011879;28;20230;-84
2021/05/14 03:18:06;;;;;;;1.20;1.10;;;;;;;10.79;75.76;94824.97;5011361;28;20219;-81
2021/05/14 03:20:33;;;;;;;3.70;1.20;;;;;;;10.75;75.13;94831.53;5012445;28;20199;-81
2021/05/14 03:22:59;;;;;;;1.87;1.33;;;;;;;10.66;74.85;94833.50;5011189;28;20209;-82
2021/05/14 03:25:25;;;;;;;1.43;1.13;;;;;;;10.68;74.92;94831.50;5010956;28;20226;-81
2021/05/14 03:27:51;;;;;;;3.20;1.10;;;;;;;10.67;74.30;94835.09;5011538;28;20223;-83
2021/05/14 03:30:17;;;;;;;3.63;1.53;;;;;;;10.59;74.20;94834.44;5011043;28;20226;-82
2021/05/14 03:32:44;;;;;;;1.87;1.10;;;;;;;10.54;73.95;94836.84;5011354;28;20208;-82
2021/05/14 03:35:11;;;;;;;1.23;1.13;;;;;;;10.52;74.56;94837.03;5011469;28;20678;-82
2021/05/14 03:37:38;;;;;;;1.63;1.30;;;;;;;10.52;75.72;94831.88;5012112;28;20375;-81
2021/05/14 03:40:16;;;;;;;1.47;1.37;;;;;;;10.56;75.16;94840.00;5011200;28;20330;-79
2021/05/14 03:42:42;;;;;;;1.30;1.00;;;;;;;10.56;73.92;94840.00;5009978;28;20203;-82
2021/05/14 03:45:09;;;;;;;3.27;1.30;;;;;;;10.57;74.56;94844.97;5011860;28;20209;-80
2021/05/14 03:47:35;;;;;;;2.10;1.13;;;;;;;10.58;74.25;94845.75;5011290;28;20250;-80
2021/05/14 03:50:02;;;;;;;1.00;1.00;;;;;;;10.60;74.71;94843.75;5012041;28;20218;-80
2021/05/14 03:52:28;;;;;;;1.30;1.20;;;;;;;10.59;74.45;94842.97;5011916;28;20685;-80
2021/05/14 03:54:55;;;;;;;1.30;1.10;;;;;;;10.60;74.36;94844.56;5011493;28;20199;-80
2021/05/14 03:57:21;;;;;;;2.37;1.10;;;;;;;10.61;73.76;94848.72;5011441;28;20855;-80
2021/05/14 03:59:46;;;;;;;1.50;1.20;;;;;;;10.58;74.06;94843.19;5011310;28;20195;-81
2021/05/14 04:02:12;;;;;;;1.30;1.20;;;;;;;10.58;73.78;94850.91;5011300;28;20199;-80
2021/05/14 04:04:38;;;;;;;2.00;1.17;;;;;;;10.60;73.16;94848.91;5003817;28;20254;-80
2021/05/14 04:07:05;;;;;;;2.40;1.03;;;;;;;10.57;73.75;94847.53;5008562;28;20199;-82
2021/05/14 04:09:33;;;;;;;1.73;1.17;;;;;;;10.55;73.20;94849.50;5015248;28;20253;-82
2021/05/14 04:14:26;;;;;;;1.53;1.20;;;;;;;10.57;74.04;94847.53;5014612;28;20207;-81
2021/05/14 04:15:00;;;;;;;1.80;1.40;;;;;;;10.62;73.63;94846.94;5014769;28;20222;-80
2021/05/14 04:17:26;;;;;;;1.20;1.20;;;;;;;10.66;73.33;94846.34;5015162;28;20810;-82
2021/05/14 04:19:52;;;;;;;1.33;1.20;;;;;;;10.58;73.69;94838.81;5015230;28;20697;-80
2021/05/14 04:22:18;;;;;;;1.37;1.27;;;;;;;10.57;73.84;94839.81;5018448;28;20271;-81
2021/05/14 04:24:44;;;;;;;1.20;1.10;;;;;;;10.59;72.85;94839.59;5019075;28;20222;-83
2021/05/14 04:27:13;;;;;;;1.30;1.20;;;;;;;10.63;72.54;94849.31;5019044;28;20223;-84
2021/05/14 04:29:39;;;;;;;1.47;1.37;;;;;;;10.67;72.86;94840.22;5019826;28;20701;-82
2021/05/14 04:32:06;;;;;;;24.00;19.47;;;;;;;10.76;72.75;94845.22;5019660;28;20195;-81
2021/05/14 04:34:32;;;;;;;12.30;10.00;;;;;;;10.81;72.47;94842.81;5019901;28;20199;-82
2021/05/14 04:36:58;;;;;;;5.00;3.43;;;;;;;10.94;75.32;94841.06;5020853;28;20214;-81
2021/05/14 04:39:24;;;;;;;2.37;1.77;;;;;;;11.04;71.66;94830.38;5016703;28;20209;-82
2021/05/14 04:41:50;;;;;;;3.40;1.90;;;;;;;11.13;72.89;94836.91;5008092;28;20198;-80
2021/05/14 04:44:17;;;;;;;1.70;1.27;;;;;;;11.29;71.63;94838.31;4998261;28;20218;-81
2021/05/14 04:46:44;;;;;;;1.20;1.03;;;;;;;11.36;71.08;94836.50;5004902;28;20199;-82
2021/05/14 04:49:10;;;;;;;1.47;1.23;;;;;;;11.35;70.29;94835.72;5008405;28;20226;-84
2021/05/14 04:51:36;;;;;;;1.73;1.17;;;;;;;11.29;69.85;94836.53;5000361;28;20215;-83
2021/05/14 04:54:04;;;;;;;1.20;1.10;;;;;;;11.34;69.95;94838.50;5017015;28;20203;-82
2021/05/14 04:56:30;;;;;;;1.07;1.00;;;;;;;11.34;70.01;94835.94;5016449;28;20202;-82
2021/05/14 04:58:56;;;;;;;2.40;1.10;;;;;;;11.35;69.60;94830.53;5008150;28;20627;-81
2021/05/14 05:01:23;;;;;;;2.97;1.10;;;;;;;11.45;69.87;94821.63;5014727;28;20199;-83
2021/05/14 05:03:52;;;;;;;2.33;1.10;;;;;;;11.48;70.10;94824.59;5014166;28;20390;-83
2021/05/14 05:06:18;;;;;;;1.40;1.10;;;;;;;11.56;69.46;94839.84;5014621;28;20203;-80
2021/05/14 05:08:44;;;;;;;1.90;1.13;;;;;;;11.55;69.16;94833.09;5013382;28;20218;-83
2021/05/14 05:11:10;;;;;;;1.30;1.20;;;;;;;11.57;69.57;94835.50;5013658;28;20202;-82
2021/05/14 05:13:36;;;;;;;1.20;1.10;;;;;;;11.60;69.77;94832.50;5013570;28;20253;-83
2021/05/14 05:16:02;;;;;;;1.07;0.97;;;;;;;11.65;69.37;94835.28;5015018;28;20203;-83
2021/05/14 05:18:29;;;;;;;2.50;1.20;;;;;;;11.71;70.15;94845.59;5014220;28;20222;-83
2021/05/14 05:20:55;;;;;;;1.10;1.00;;;;;;;11.73;69.55;94838.47;5014260;28;20211;-81
2021/05/14 05:23:21;;;;;;;1.23;1.13;;;;;;;11.76;70.09;94845.00;5013865;28;20202;-81
2021/05/14 05:25:48;;;;;;;2.13;1.17;;;;;;;11.85;69.94;94846.38;5013448;28;20272;-82
2021/05/14 05:28:14;;;;;;;2.07;1.10;;;;;;;11.90;69.81;94844.00;5014081;28;20281;-83
2021/05/14 05:30:40;;;;;;;1.23;1.07;;;;;;;11.93;69.11;94846.16;5013977;28;20261;-83
2021/05/14 05:33:06;;;;;;;2.10;1.03;;;;;;;11.92;68.80;94848.97;5014085;28;20225;-81
2021/05/14 05:35:33;;;;;;;1.30;1.20;;;;;;;11.98;68.92;94843.75;5013959;28;20199;-83
2021/05/14 05:37:59;;;;;;;1.13;1.03;;;;;;;12.10;68.91;94847.31;5013408;28;20233;-84
2021/05/14 05:40:25;;;;;;;1.17;1.00;;;;;;;12.11;67.38;94848.09;5013282;28;20203;-83
2021/05/14 05:42:51;;;;;;;4.90;3.47;;;;;;;12.21;68.83;94842.50;5012828;28;20206;-83
2021/05/14 05:45:17;;;;;;;4.50;4.07;;;;;;;12.21;68.05;94845.09;5012888;28;20255;-83
2021/05/14 05:47:43;;;;;;;1.87;1.60;;;;;;;12.18;67.28;94848.06;5012591;28;20219;-82
2021/05/14 05:50:12;;;;;;;3.07;1.10;;;;;;;12.22;67.31;94852.63;5013963;28;20713;-81
2021/05/14 05:52:39;;;;;;;2.20;1.30;;;;;;;12.37;67.53;94854.94;5013538;28;20206;-82
2021/05/14 05:55:06;;;;;;;2.30;2.10;;;;;;;12.39;67.01;94855.53;5013951;28;20207;-83
2021/05/14 05:57:32;;;;;;;2.57;2.13;;;;;;;12.31;65.25;94856.56;5010031;28;20656;-83
2021/05/14 05:59:58;;;;;;;1.60;1.20;;;;;;;12.35;66.87;94856.94;5013832;28;20232;-82
2021/05/14 06:02:24;;;;;;;1.83;1.37;;;;;;;12.39;66.71;94858.91;5013316;28;20285;-83
2021/05/14 06:04:50;;;;;;;0.80;0.80;;;;;;;12.47;66.65;94857.09;5013400;28;20203;-82
2021/05/14 06:07:16;;;;;;;1.27;1.03;;;;;;;12.44;65.30;94855.72;5013783;28;20555;-82
2021/05/14 06:09:43;;;;;;;1.33;1.00;;;;;;;12.48;65.73;94856.09;5012895;28;20597;-81
2021/05/14 06:12:09;;;;;;;1.07;0.97;;;;;;;12.47;66.02;94857.09;5013231;28;20266;-81
2021/05/14 06:14:35;;;;;;;0.83;0.83;;;;;;;12.53;65.27;94858.84;5013252;28;20265;-79
2021/05/14 06:17:01;;;;;;;1.10;0.97;;;;;;;12.58;64.46;94864.97;5013765;28;20538;-81
2021/05/14 06:19:28;;;;;;;1.03;0.93;;;;;;;12.67;65.37;94858.59;5012612;28;20741;-83
2021/05/14 06:21:54;;;;;;;4.13;1.00;;;;;;;12.75;64.87;94860.13;5012995;28;20257;-82
2021/05/14 06:24:20;;;;;;;1.37;1.00;;;;;;;12.85;65.07;94868.22;5012286;28;20204;-81
2021/05/14 06:26:47;;;;;;;2.87;1.30;;;;;;;12.89;63.76;94866.81;5004210;28;20206;-83
2021/05/14 06:29:14;;;;;;;1.37;0.93;;;;;;;13.05;64.98;94870.69;4997858;28;20227;-80
2021/05/14 06:31:41;;;;;;;1.07;1.00;;;;;;;13.14;64.51;94872.78;5010806;28;20198;-82
2021/05/14 06:34:07;;;;;;;3.57;1.10;;;;;;;13.13;63.81;94873.78;5012102;28;20199;-83
2021/05/14 06:36:34;;;;;;;1.23;1.00;;;;;;;13.10;64.83;94876.00;5012719;28;20214;-81
2021/05/14 06:39:00;;;;;;;1.00;1.00;;;;;;;13.12;64.13;94866.25;5008289;28;20219;-81
2021/05/14 06:41:27;;;;;;;1.20;1.10;;;;;;;13.22;63.94;94871.00;5005488;28;20270;-83
2021/05/14 06:43:56;;;;;;;1.50;1.20;;;;;;;13.33;65.07;94878.06;4998066;28;20210;-83
2021/05/14 06:46:22;;;;;;;1.23;1.00;;;;;;;13.45;64.62;94872.00;5012809;28;20198;-83
2021/05/14 06:48:49;;;;;;;1.17;0.90;;;;;;;13.56;66.15;94877.47;5007077;28;20248;-83
2021/05/14 06:51:15;;;;;;;2.10;1.00;;;;;;;13.65;65.52;94871.84;4997708;28;20204;-79
2021/05/14 06:53:40;;;;;;;1.43;0.90;;;;;;;13.66;64.38;94878.56;4995241;28;20812;-84
2021/05/14 06:56:20;;;;;;;14.23;12.73;;;;;;;13.60;63.96;94884.63;5013205;28;20202;-81
2021/05/14 06:58:46;;;;;;;2.60;2.40;;;;;;;13.64;65.07;94878.03;5005652;28;20219;-83
2021/05/14 07:01:12;;;;;;;3.57;2.50;;;;;;;13.73;63.74;94894.84;4993028;28;20325;-83
2021/05/14 07:03:38;;;;;;;1.77;1.20;;;;;;;13.73;62.32;94883.69;4991973;28;20281;-81
2021/05/14 07:06:05;;;;;;;1.43;0.90;;;;;;;13.76;61.54;94884.06;4993275;28;20683;-84
2021/05/14 07:08:31;;;;;;;1.00;1.00;;;;;;;13.74;60.82;94888.66;5002469;28;20273;-83
2021/05/14 07:10:59;;;;;;;0.83;0.83;;;;;;;13.73;60.19;94889.66;5011652;28;20202;-83
2021/05/14 07:13:25;;;;;;;1.00;0.90;;;;;;;13.76;60.44;94891.03;5011286;28;20194;-81
2021/05/14 07:16:08;;;;;;;2.80;0.90;;;;;;;13.77;62.82;94890.03;5011743;28;20633;-84
2021/05/14 07:18:38;;;;;;;9.17;1.20;;;;;;;13.74;62.94;94885.28;4998219;28;20220;-83
2021/05/14 07:21:04;;;;;;;1.20;0.93;;;;;;;13.89;61.64;94892.69;4994354;28;20222;-82
2021/05/14 07:23:31;;;;;;;1.00;0.80;;;;;;;13.99;58.69;94891.22;5005644;28;20199;-83
2021/05/14 07:25:59;;;;;;;2.60;1.00;;;;;;;14.15;58.89;94895.84;4990785;28;20242;-83
2021/05/14 07:28:28;;;;;;;1.03;0.90;;;;;;;14.23;59.51;94892.19;4992676;28;20231;-83
2021/05/14 07:30:54;;;;;;;4.20;0.80;;;;;;;14.40;58.59;94888.03;4989031;28;20304;-83
2021/05/14 07:33:20;;;;;;;0.70;0.70;;;;;;;14.48;57.87;94892.91;5001980;28;20198;-83
2021/05/14 07:35:49;;;;;;;1.00;0.90;;;;;;;14.60;56.54;94897.38;5001297;28;20208;-83
2021/05/14 07:38:19;;;;;;;0.97;0.70;;;;;;;14.51;57.64;94889.09;5008488;28;20697;-83
2021/05/14 07:40:50;;;;;;;1.53;1.10;;;;;;;14.53;57.41;94892.25;5000541;28;20294;-84
2021/05/14 07:43:19;;;;;;;1.63;0.80;;;;;;;14.45;56.61;94887.34;5006062;28;20192;-84
2021/05/14 07:45:49;;;;;;;3.90;3.30;;;;;;;14.61;57.35;94891.97;5008478;28;20227;-84
2021/05/14 07:48:20;;;;;;;2.03;1.50;;;;;;;14.66;56.87;94883.53;5010669;28;20230;-81
2021/05/14 07:50:50;;;;;;;1.10;1.00;;;;;;;14.68;57.00;94887.47;5013518;28;20234;-84
2021/05/14 07:53:18;;;;;;;0.83;0.83;;;;;;;14.91;56.04;94883.41;5009903;28;20199;-84
2021/05/14 07:55:44;;;;;;;2.97;1.00;;;;;;;14.90;57.31;94882.59;5010657;28;20195;-83
2021/05/14 07:58:10;;;;;;;1.53;1.20;;;;;;;14.94;58.04;94882.97;5009668;28;20581;-84
2021/05/14 08:00:40;;;;;;;2.97;1.50;;;;;;;14.86;57.44;94887.44;5003225;28;20222;-84
2021/05/14 08:03:08;;;;;;;3.30;2.70;;;;;;;15.08;56.95;94889.53;5001430;28;20285;-84
2021/05/14 08:05:34;;;;;;;2.97;2.30;;;;;;;15.26;56.65;94881.69;5005193;28;20199;-83
2021/05/14 08:08:06;;;;;;;1.00;0.90;;;;;;;15.34;52.52;94883.19;5014239;28;20223;-84
2021/05/14 08:10:32;;;;;;;1.03;0.80;;;;;;;15.29;52.34;94877.88;5002874;28;20904;-83
2021/05/14 08:12:58;;;;;;;0.67;0.67;;;;;;;15.30;51.88;94882.03;4994576;28;20278;-84
2021/05/14 08:15:26;;;;;;;0.83;0.63;;;;;;;15.37;51.37;94874.97;4999718;28;20207;-81
2021/05/14 08:17:52;;;;;;;0.70;0.70;;;;;;;15.48;51.67;94879.38;5013678;28;20734;-81
2021/05/14 08:20:26;;;;;;;1.33;0.67;;;;;;;15.70;51.16;94882.25;5011609;28;20634;-81
2021/05/14 08:22:54;;;;;;;0.73;0.70;;;;;;;15.65;51.46;94876.94;4999754;28;20445;-82
2021/05/14 08:25:23;;;;;;;0.93;0.70;;;;;;;15.75;51.16;94885.75;4995538;28;20231;-82
2021/05/14 08:27:49;;;;;;;0.90;0.77;;;;;;;15.92;52.80;94882.47;5000189;28;20227;-82
2021/05/14 08:30:16;;;;;;;0.77;0.77;;;;;;;16.11;52.29;94883.94;5004807;28;20638;-82
2021/05/14 08:32:45;;;;;;;0.80;0.80;;;;;;;16.14;49.26;94879.06;5003801;28;20213;-84
2021/05/14 08:35:13;;;;;;;1.65;0.88;;;;;;;16.21;50.57;94876.34;5004734;28;20191;-84
2021/05/14 08:37:47;;;;;;;0.77;0.77;;;;;;;16.27;50.27;94880.63;4997102;28;20231;-86
2021/05/14 08:40:13;;;;;;;0.80;0.80;;;;;;;16.40;50.04;94874.38;5011247;28;20202;-82
2021/05/14 08:42:43;;;;;;;1.15;1.02;;;;;;;16.61;49.99;94875.56;4993222;28;20203;-82
2021/05/14 08:45:14;;;;;;;0.73;0.73;;;;;;;16.48;50.80;94876.63;5001999;28;20198;-82
2021/05/14 08:47:43;;;;;;;1.33;0.70;;;;;;;16.17;50.08;94880.41;5002102;28;20223;-84
2021/05/14 08:50:17;;;;;;;1.48;1.20;;;;;;;16.32;49.80;94878.13;5002886;28;20257;-84
2021/05/14 08:52:45;;;;;;;1.30;1.20;;;;;;;16.62;49.58;94871.94;5011380;28;20207;-85
2021/05/14 08:55:22;;;;;;;2.03;1.25;;;;;;;16.85;50.51;94867.50;5013566;28;20593;-85
2021/05/14 08:57:52;;;;;;;0.70;0.70;;;;;;;16.72;47.69;94869.59;5015425;28;20317;-85
2021/05/14 09:00:20;;;;;;;1.95;0.90;;;;;;;16.95;48.60;94864.25;5007278;28;20210;-85
2021/05/14 09:02:46;;;;;;;0.98;0.80;;;;;;;16.80;50.00;94871.78;5003950;28;20596;-85
2021/05/14 09:05:23;;;;;;;0.80;0.70;;;;;;;16.59;49.83;94871.38;4995145;28;20200;-84
2021/05/14 09:07:50;;;;;;;0.95;0.90;;;;;;;16.65;48.33;94867.09;5006740;28;20309;-86
2021/05/14 09:10:17;;;;;;;6.05;3.22;;;;;;;16.96;48.14;94863.25;5000277;28;20840;-82
2021/05/14 09:12:44;;;;;;;4.38;3.78;;;;;;;17.25;48.29;94862.19;5013504;28;20560;-84
2021/05/14 09:15:30;;;;;;;1.05;0.90;;;;;;;17.59;46.19;94859.59;5013634;28;20205;-83
2021/05/14 09:18:04;;;;;;;2.40;0.90;;;;;;;17.83;47.45;94858.41;5013409;28;20333;-84
2021/05/14 09:20:30;;;;;;;0.85;0.73;;;;;;;17.66;47.43;94856.88;5013046;28;20198;-83
2021/05/14 09:22:57;;;;;;;1.08;0.98;;;;;;;17.18;48.29;94863.34;5013630;28;20206;-84
2021/05/14 09:25:23;;;;;;;0.75;0.60;;;;;;;16.88;47.35;94861.03;5013613;28;20233;-84
2021/05/14 09:27:49;;;;;;;1.25;0.70;;;;;;;16.92;47.91;94860.34;5013516;28;20215;-84
2021/05/14 09:30:15;;;;;;;1.27;0.70;;;;;;;16.72;49.05;94859.19;5013456;28;20222;-84
2021/05/14 09:32:42;;;;;;;0.70;0.70;;;;;;;16.62;48.01;94866.75;5013375;28;20202;-84
2021/05/14 09:35:09;;;;;;;1.17;0.80;;;;;;;16.49;48.50;94871.19;4996918;28;20208;-84
2021/05/14 09:37:45;;;;;;;1.83;0.90;;;;;;;16.28;47.56;94860.63;4994100;28;20258;-84
2021/05/14 09:40:14;;;;;;;0.93;0.75;;;;;;;16.17;48.92;94857.81;4993599;28;20203;-84
2021/05/14 09:42:40;;;;;;;0.95;0.70;;;;;;;16.67;47.81;94859.88;4994232;28;20291;-84
2021/05/14 09:45:17;;;;;;;0.70;0.70;;;;;;;17.26;45.23;94844.78;4994124;28;20210;-83
2021/05/14 09:47:57;;;;;;;2.03;0.80;;;;;;;17.58;44.30;94842.41;5004253;28;20225;-84
2021/05/14 09:50:31;;;;;;;0.70;0.70;;;;;;;17.79;41.98;94844.31;5012819;28;20605;-84
2021/05/14 09:53:01;;;;;;;1.63;1.25;;;;;;;17.99;42.07;94841.19;5012876;28;20222;-84
2021/05/14 09:55:27;;;;;;;1.52;1.20;;;;;;;18.02;41.97;94842.53;5006862;28;20211;-84
2021/05/14 09:58:01;;;;;;;0.80;0.80;;;;;;;18.18;42.17;94837.25;5006499;28;20231;-84
2021/05/14 10:00:27;;;;;;;0.82;0.70;;;;;;;18.18;42.96;94837.25;5004884;28;20603;-83
2021/05/14 10:02:57;;;;;;;1.88;0.77;;;;;;;18.43;44.87;94846.44;5012750;28;20290;-84
2021/05/14 10:05:24;;;;;;;1.17;0.80;;;;;;;18.50;45.31;94839.97;5013183;28;20218;-84
2021/05/14 10:07:50;;;;;;;1.58;0.60;;;;;;;18.11;43.43;94846.28;5012427;28;20215;-83
2021/05/14 10:10:16;;;;;;;0.60;0.60;;;;;;;17.78;42.69;94844.53;5011821;28;20284;-83
2021/05/14 10:12:42;;;;;;;0.60;0.60;;;;;;;17.49;41.89;94839.41;5012561;28;20210;-83
2021/05/14 10:15:09;;;;;;;1.13;0.70;;;;;;;17.29;42.86;94846.91;5013195;28;20285;-84
2021/05/14 10:17:37;;;;;;;0.70;0.70;;;;;;;17.23;43.50;94833.03;5012816;28;20219;-84
2021/05/14 10:20:06;;;;;;;0.60;0.60;;;;;;;17.17;42.22;94846.16;5012472;28;20201;-84
2021/05/14 10:22:34;;;;;;;0.80;0.77;;;;;;;17.38;42.63;94842.88;4993565;28;20207;-83
2021/05/14 10:25:00;;;;;;;0.80;0.80;;;;;;;17.79;40.97;94835.69;4993831;28;20238;-84
2021/05/14 10:27:30;;;;;;;0.95;0.63;;;;;;;18.35;41.37;94839.03;5013873;28;20202;-83
2021/05/14 10:29:57;;;;;;;5.88;5.10;;;;;;;18.72;41.89;94836.59;5013022;28;20227;-84
2021/05/14 10:32:50;;;;;;;4.32;3.15;;;;;;;18.43;42.06;94842.00;5013372;28;20199;-83
2021/05/14 10:35:22;;;;;;;1.33;0.82;;;;;;;18.03;41.06;94833.69;5009761;28;20202;-84
2021/05/14 10:37:50;;;;;;;0.75;0.65;;;;;;;17.91;41.56;94847.59;5013156;28;20227;-82
2021/05/14 10:40:52;;;;;;;0.60;0.60;;;;;;;17.91;40.72;94837.16;4999820;28;20803;-81
2021/05/14 10:43:20;;;;;;;6.00;5.43;;;;;;;17.86;42.56;94836.31;4934259;29;20236;-80
2021/05/14 10:46:00;;;;;;;0.93;0.90;;;;;;;17.72;42.47;94827.25;4947099;29;20201;-82
2021/05/14 10:48:27;;;;;;;1.27;0.63;;;;;;;17.59;44.86;94834.34;4984875;28;20280;-80
2021/05/14 10:50:56;;;;;;;0.70;0.70;;;;;;;17.53;43.37;94837.09;5009616;28;20361;-83
2021/05/14 10:53:35;;;;;;;0.70;0.70;;;;;;;17.45;44.16;94832.31;5011905;28;20912;-84
2021/05/14 10:56:50;;;;;;;0.85;0.82;;;;;;;18.02;42.11;94840.72;5011860;28;20202;-84
2021/05/14 10:59:30;;;;;;;0.80;0.80;;;;;;;18.63;43.12;94839.66;5011008;28;20613;-84
2021/05/14 11:01:57;;;;;;;0.73;0.73;;;;;;;18.84;40.77;94830.22;5011309;28;20198;-83
2021/05/14 11:04:42;;;;;;;1.45;0.70;;;;;;;18.75;41.42;94829.06;5011945;28;20198;-84
2021/05/14 11:07:40;;;;;;;0.70;0.70;;;;;;;18.73;40.60;94827.75;5012503;28;20206;-83
2021/05/14 11:10:29;;;;;;;1.92;0.70;;;;;;;18.46;41.98;94825.88;5011476;28;20265;-83
2021/05/14 11:12:55;;;;;;;15.43;13.88;;;;;;;18.13;43.77;94825.97;5011748;28;20219;-83
2021/05/14 11:15:36;;;;;;;3.63;2.83;;;;;;;17.90;42.82;94822.56;5012849;28;20574;-83
2021/05/14 11:18:23;;;;;;;1.48;1.20;;;;;;;17.73;45.69;94827.03;5012575;28;20222;-85
2021/05/14 11:20:50;;;;;;;0.70;0.70;;;;;;;17.60;46.07;94827.34;4997638;28;20275;-83
2021/05/14 11:23:38;;;;;;;1.33;0.80;;;;;;;17.65;45.36;94831.84;4996732;28;20255;-84
2021/05/14 11:26:06;;;;;;;0.70;0.70;;;;;;;17.55;45.46;94827.25;4996697;28;20289;-84
2021/05/14 11:28:40;;;;;;;0.60;0.60;;;;;;;17.51;46.37;94834.75;4996845;28;20227;-83
2021/05/14 11:31:12;;;;;;;0.70;0.70;;;;;;;17.52;46.08;94840.72;5006217;28;20214;-84
2021/05/14 11:33:42;;;;;;;3.95;3.55;;;;;;;17.46;46.91;94834.69;5008561;28;20196;-85
2021/05/14 11:36:08;;;;;;;4.78;4.28;;;;;;;17.42;46.78;94828.38;4996677;28;20269;-84
2021/05/14 11:38:35;;;;;;;1.48;1.30;;;;;;;17.44;45.83;94831.53;4997350;28;20267;-84